• Join FlightAware (Why Join?)
  • Login
  • US Flag 
12:15AM EDT


 

Airport Tracker/Info


-or-


 

Live Flight TrackerFlight Track Log ✈ ANA693 ✈ 13-May-2012 ✈ RJTT / HND - RJDC / UBJ

Flight Track Log - Related Links

Times and Time Zones

All times are in EDT time to prevent confusion due to time zone crossing. See the ANA693 flight status page for this flight to view local times or setup timezone preferences in your user account.

Time Position Orientation Groundspeed Altitude Reporting Facility
EDT Latitude Longitude Course Direction KTS MPH feet Rate Location/Type
08:53PM 35.5420 139.7127 259° West  Level Estimated
08:54PM 35.5227 139.5872 259° West  Level Estimated
08:55PM 35.5033 139.4618 259° West  Level Estimated
08:56PM 35.4837 139.3365 259° West  Level Estimated
08:57PM 35.4640 139.2112 259° West  Level Estimated
08:58PM 35.4442 139.0859 259° West  Level Estimated
08:59PM 35.4243 138.9607 259° West  Level Estimated
09:00PM 35.4042 138.8356 259° West  Level Estimated
09:01PM 35.3840 138.7105 259° West  Level Estimated
09:02PM 35.3637 138.5856 259° West  Level Estimated
09:03PM 35.3432 138.4606 259° West  Level Estimated
09:04PM 35.3226 138.3358 259° West  Level Estimated
09:05PM 35.3019 138.2110 258° West  Level Estimated
09:06PM 35.2811 138.0862 258° West  Level Estimated
09:07PM 35.2601 137.9615 258° West  Level Estimated
09:08PM 35.2390 137.8369 258° West  Level Estimated
09:09PM 35.2178 137.7124 258° West  Level Estimated
09:10PM 35.1964 137.5879 258° West  Level Estimated
09:11PM 35.1749 137.4635 258° West  Level Estimated
09:12PM 35.1533 137.3391 258° West  Level Estimated
09:13PM 35.1316 137.2149 258° West  Level Estimated
09:14PM 35.1097 137.0906 258° West  Level Estimated
09:15PM 35.0877 136.9665 258° West  Level Estimated
09:16PM 35.0656 136.8424 258° West  Level Estimated
09:17PM 35.0434 136.7184 258° West  Level Estimated
09:18PM 35.0210 136.5944 258° West  Level Estimated
09:19PM 34.9985 136.4706 257° West  Level Estimated
09:20PM 34.9759 136.3468 257° West  Level Estimated
09:21PM 34.9532 136.2230 257° West  Level Estimated
09:22PM 34.9303 136.0993 257° West  Level Estimated
09:23PM 34.9073 135.9757 257° West  Level Estimated
09:24PM 34.8842 135.8522 257° West  Level Estimated
09:25PM 34.8609 135.7287 257° West  Level Estimated
09:26PM 34.8375 135.6053 257° West  Level Estimated
09:27PM 34.8140 135.4820 257° West  Level Estimated
09:28PM 34.7904 135.3587 257° West  Level Estimated
09:29PM 34.7667 135.2355 257° West  Level Estimated
09:30PM 34.7428 135.1124 257° West  Level Estimated
09:31PM 34.7188 134.9894 257° West  Level Estimated
09:32PM 34.6947 134.8664 257° West  Level Estimated
09:33PM 34.6705 134.7435 256° West  Level Estimated
09:34PM 34.6461 134.6207 256° West  Level Estimated
09:35PM 34.6216 134.4979 256° West  Level Estimated
09:36PM 34.5970 134.3753 256° West  Level Estimated
09:37PM 34.5723 134.2527 256° West  Level Estimated
09:38PM 34.5474 134.1301 256° West  Level Estimated
09:39PM 34.5224 134.0077 256° West  Level Estimated
09:40PM 34.4973 133.8853 256° West  Level Estimated
09:41PM 34.4721 133.7630 256° West  Level Estimated
09:42PM 34.4468 133.6407 256° West  Level Estimated
09:43PM 34.4213 133.5186 256° West  Level Estimated
09:44PM 34.3957 133.3965 256° West  Level Estimated
09:45PM 34.3700 133.2745 256° West  Level Estimated
09:46PM 34.3442 133.1525 256° West  Level Estimated
09:47PM 34.3182 133.0307 256° West  Level Estimated
09:48PM 34.2922 132.9089 255° West  Level Estimated
09:49PM 34.2660 132.7871 255° West  Level Estimated
09:50PM 34.2397 132.6655 255° West  Level Estimated
09:51PM 34.2132 132.5439 255° West  Level Estimated
09:52PM 34.1867 132.4224 255° West  Level Estimated
09:53PM 34.1600 132.3010 255° West  Level Estimated
09:54PM 34.1332 132.1797 255° West  Level Estimated
09:55PM 34.1063 132.0584 255° West  Level Estimated
09:56PM 34.0793 131.9373 255° West  Level Estimated
09:57PM 34.0521 131.8161 255° West  Level Estimated
09:58PM 34.0249 131.6951 255° West  Level Estimated
09:59PM 33.9975 131.5742 255° West  Level Estimated
10:00PM 33.9700 131.4533 255° West  Level Estimated
10:01PM 33.9424 131.3325 255° West  Level Estimated
10:02PM 33.9146 131.2118 74° East  Level Estimated
10:03PM 33.9424 131.3325 255° West  Level Estimated
10:04PM 33.9146 131.2118 74° East  Level Estimated
10:05PM 33.9424 131.3325 255° West  Level Estimated
10:06PM 33.9146 131.2118 74° East  Level Estimated
10:07PM 33.9424 131.3325 255° West  Level Estimated
10:08PM 33.9146 131.2118 74° East  Level Estimated
10:09PM 33.9424 131.3325 255° West  Level Estimated
10:10PM 33.9146 131.2118 74° East  Level Estimated
10:11PM 33.9424 131.3325 255° West  Level Estimated
10:12PM 33.9146 131.2118 255° West  Level Estimated